Circle Line Brooklyn — WDE8160 — position and weather

sailwx.info

Track history (hours):
 
Tides and Currents Weather Stations Pressure Air Temp Water Temp Dewpoint Dewpoint Depression Visibility Wind Speed Wind Dir Waves Ship Positions

Circle Line Brooklyn

Owner: Circle Line Sight Seeing Yachts Inc., New York, NY. More information available from US FCC via Universal Licensing System and Coast Guard Vessel Documentation Center.

Last reported at 2017-May-25 21:58 UTC. Time now 2017-May-26 16:50 UTC.
Position N 40°46' W 074°00'.

MMSI: 367402250.

Date/timePositionNaut miles runAvg speedWind from/ knotsBaromVisibWave heightAir tempDewpointWater temp
2017-May-25 21:58N 40°46' W 074°00'0 0.0
2017-May-25 21:30N 40°46' W 074°00'3 6.9
2017-May-25 21:00N 40°42' W 073°60'2 4.8
2017-May-25 20:30N 40°41' W 074°02'5 9.1
2017-May-25 19:59N 40°46' W 074°00'0 0.0
2017-May-25 19:29N 40°46' W 074°00'0 0.0
2017-May-25 18:59N 40°46' W 074°00'0 0.0
2017-May-25 18:29N 40°46' W 074°00'611.7
2017-May-25 18:01N 40°51' W 073°57'5 6.0
2017-May-25 17:13N 40°46' W 073°57'210.5
2017-May-25 17:00N 40°44' W 073°58'4 9.0
2017-May-25 16:30N 40°41' W 074°03'5 9.6
2017-May-25 16:00N 40°46' W 074°00'0 0.0
2017-May-25 15:30N 40°46' W 074°00'0 0.0
2017-May-25 15:00N 40°46' W 074°00'0 0.0
2017-May-25 14:27N 40°46' W 074°00'0 0.0
2017-May-25 00:58N 40°46' W 074°00'4 8.2
2017-May-25 00:31N 40°42' W 074°01'4 7.6
2017-May-25 00:00N 40°45' W 073°58'5 9.8
2017-May-24 23:30N 40°42' W 074°02'4 8.9
2017-May-24 23:00N 40°46' W 074°00'0 0.0
2017-May-24 22:30N 40°46' W 074°00'0 0.0
2017-May-24 22:00N 40°46' W 074°00'0 0.0
2017-May-24 21:30N 40°46' W 074°00'3 6.8
2017-May-24 21:01N 40°43' W 073°59'3 5.8
2017-May-24 20:30N 40°41' W 074°02'5 9.4
2017-May-24 20:00N 40°46' W 074°00'0 0.0
2017-May-24 19:30N 40°46' W 074°00'0 0.0
2017-May-24 19:00N 40°46' W 074°00'0 0.0
2017-May-24 18:30N 40°46' W 074°00'0 0.0
2017-May-24 18:00N 40°46' W 074°00'0 0.0
2017-May-24 17:30N 40°46' W 074°00'0 0.0
2017-May-24 17:00N 40°46' W 074°00'0 0.0
2017-May-24 16:30N 40°46' W 074°00'2 4.0
2017-May-24 16:00N 40°44' W 074°01'2 3.9
2017-May-24 15:30N 40°42' W 073°60'2 3.4
2017-May-24 15:00N 40°44' W 074°01'2 4.7
2017-May-24 14:30N 40°46' W 074°00'0 0.0
2017-May-24 13:28N 40°46' W 074°00'0 0.0
2017-May-24 12:58N 40°46' W 074°00'0 0.0
2017-May-23 22:40N 40°46' W 074°00'0 0.0
2017-May-23 22:28N 40°46' W 074°00'0 0.0
2017-May-23 21:58N 40°46' W 074°00'0 0.0
2017-May-23 21:28N 40°46' W 074°00'0 0.0
2017-May-23 20:58N 40°46' W 074°00'0 0.0
2017-May-23 20:28N 40°46' W 074°00'1 1.1
2017-May-23 20:00N 40°46' W 074°00'611.7
2017-May-23 19:30N 40°52' W 073°57'5 6.1
2017-May-23 18:38N 40°46' W 073°57'212.6
2017-May-23 18:30N 40°45' W 073°58'510.2
2017-May-23 18:00N 40°41' W 074°03'5 9.9
2017-May-23 17:30N 40°46' W 074°00'0 0.0
2017-May-23 17:00N 40°46' W 074°00'0 0.0
2017-May-23 16:30N 40°46' W 074°00'612.1
2017-May-23 16:00N 40°51' W 073°57'2 4.4
2017-May-23 15:30N 40°49' W 073°56'611.4
2017-May-23 15:00N 40°44' W 073°58'4 8.5
2017-May-23 14:30N 40°41' W 074°03'5 4.7
2017-May-23 13:27N 40°46' W 074°00'0 0.0
2017-May-23 12:57N 40°46' W 074°00'0 0.0
2017-May-22 21:30N 40°46' W 074°00'5 9.9
2017-May-22 21:00N 40°41' W 074°03'5 9.9
2017-May-22 20:30N 40°46' W 074°00'0 0.0
2017-May-22 19:58N 40°46' W 074°00'0 0.0
2017-May-22 19:30N 40°46' W 074°00'510.1
2017-May-22 19:00N 40°41' W 074°02'5 9.6
2017-May-22 18:30N 40°46' W 074°00'0 0.0
2017-May-22 18:00N 40°46' W 074°00'0 0.0
2017-May-22 17:30N 40°46' W 074°00'0 0.0
2017-May-22 17:00N 40°46' W 074°00'3 6.8
2017-May-22 16:30N 40°43' W 073°59'3 5.7
2017-May-22 16:01N 40°40' W 074°01'1 2.6
2017-May-22 15:30N 40°41' W 074°02'5 9.0
2017-May-22 15:00N 40°46' W 074°00'0 0.0
2017-May-22 14:00N 40°46' W 074°00'0 0.0
2017-May-22 13:30N 40°46' W 074°00'0 0.0
2017-May-22 00:52N 40°46' W 074°00'2 4.6
2017-May-22 00:30N 40°44' W 074°01'2 4.7
2017-May-22 00:01N 40°44' W 073°58'2 3.2
2017-May-21 23:31N 40°42' W 073°60'2 4.3
2017-May-21 23:00N 40°44' W 074°01'2 3.6
2017-May-21 22:30N 40°46' W 074°00'0 0.0
2017-May-21 22:00N 40°46' W 074°00'0 0.0
2017-May-21 21:30N 40°46' W 074°00'3 6.9
2017-May-21 21:00N 40°43' W 073°59'2 4.2
2017-May-21 20:31N 40°43' W 074°02'3 6.5
2017-May-21 20:00N 40°46' W 074°00'0 0.0
2017-May-21 19:30N 40°46' W 074°00'0 0.0
2017-May-21 19:00N 40°46' W 074°00'0 0.0
2017-May-21 18:30N 40°46' W 074°00'4 8.8
2017-May-21 18:01N 40°50' W 073°58'4 3.8
2017-May-21 17:03N 40°46' W 073°57'112.8
2017-May-21 17:00N 40°46' W 073°57'612.2
2017-May-21 16:30N 40°41' W 074°03'5 9.8
2017-May-21 16:00N 40°46' W 074°00'0 0.0
2017-May-21 15:30N 40°46' W 074°00'0 0.0
2017-May-21 15:00N 40°46' W 074°00'0 0.0
2017-May-21 14:30N 40°46' W 074°00'0 0.0
2017-May-21 01:00N 40°46' W 074°00'4 7.8
2017-May-21 00:30N 40°42' W 074°02'3 6.6
2017-May-21 00:00N 40°44' W 073°58'3 6.0
2017-May-20 23:31N 40°42' W 074°01'4 7.7
2017-May-20 22:59N 40°46' W 074°00'0 0.0
2017-May-20 22:29N 40°46' W 074°00'0 0.0
2017-May-20 21:59N 40°46' W 074°00'0 0.1
2017-May-20 21:30N 40°46' W 074°00'4 7.6
2017-May-20 21:00N 40°42' W 074°02'4 7.3
2017-May-20 20:29N 40°46' W 074°00'0 0.0
2017-May-20 19:59N 40°46' W 074°00'0 0.2
2017-May-20 19:30N 40°46' W 074°00'5 9.2
2017-May-20 19:01N 40°42' W 074°02'5 9.0
2017-May-20 18:30N 40°46' W 074°00'0 0.0
2017-May-20 18:00N 40°46' W 074°00'0 0.0
2017-May-20 17:30N 40°46' W 074°00'0 0.0
2017-May-20 17:01N 40°46' W 074°00'4 7.4
2017-May-20 16:31N 40°42' W 074°00'1 2.1
2017-May-20 16:00N 40°41' W 074°01'1 2.8
2017-May-20 15:30N 40°41' W 074°03'510.0
2017-May-20 15:00N 40°46' W 074°00'0 0.0
2017-May-20 14:29N 40°46' W 074°00'0 0.0
2017-May-19 21:32N 40°46' W 074°00'0 0.0
2017-May-19 21:30N 40°46' W 074°00'5 9.5
2017-May-19 21:00N 40°41' W 074°02'5 8.6
2017-May-19 20:28N 40°46' W 074°00'0 0.0
2017-May-19 19:58N 40°46' W 074°00'0 0.0
2017-May-19 19:29N 40°46' W 074°00'5 9.8
2017-May-19 19:00N 40°41' W 074°02'5 9.3
2017-May-19 18:30N 40°46' W 074°00'0 0.0
2017-May-19 17:58N 40°46' W 074°00'0 0.0
2017-May-19 17:28N 40°46' W 074°00'0 0.0
2017-May-19 17:00N 40°46' W 074°00'4 7.4
2017-May-19 16:30N 40°42' W 074°00'1 2.4
2017-May-19 16:00N 40°41' W 074°01'1 2.6
2017-May-19 15:30N 40°41' W 074°03'5 8.5
2017-May-19 14:55N 40°46' W 074°00'0 0.0
2017-May-19 13:58N 40°46' W 074°00'0 0.0
2017-May-18 21:41N 40°46' W 074°00'1 5.3
2017-May-18 21:30N 40°45' W 074°01'3 5.4
2017-May-18 21:00N 40°43' W 073°58'3 5.2
2017-May-18 20:30N 40°43' W 074°01'3 5.9
2017-May-18 20:00N 40°46' W 074°00'0 0.0
2017-May-18 19:28N 40°46' W 074°00'0 0.0
2017-May-18 18:58N 40°46' W 074°00'0 0.0
2017-May-18 18:30N 40°46' W 074°00'612.0
2017-May-18 18:00N 40°51' W 073°57'6 6.3
2017-May-18 17:07N 40°46' W 073°57'112.7
2017-May-18 17:00N 40°44' W 073°58'4 7.0
2017-May-18 16:31N 40°42' W 074°02'4 7.2
2017-May-18 16:00N 40°46' W 074°00'0 0.0
2017-May-18 15:28N 40°46' W 074°00'0 0.0
2017-May-17 21:43N 40°46' W 074°00'0 0.1
2017-May-17 21:28N 40°46' W 074°00'510.5
2017-May-17 21:00N 40°41' W 074°02'5 8.9
2017-May-17 20:28N 40°46' W 074°00'0 0.0
2017-May-17 19:58N 40°46' W 074°00'0 0.0
2017-May-17 19:28N 40°46' W 074°00'510.5
2017-May-17 19:00N 40°41' W 074°02'5 7.8
2017-May-17 18:23N 40°46' W 074°00'0 0.0
2017-May-17 17:59N 40°46' W 074°00'0 0.0
2017-May-17 17:29N 40°46' W 074°00'0 0.0
2017-May-17 16:56N 40°46' W 074°00'4 8.2
2017-May-17 16:30N 40°42' W 073°60'3 5.5
2017-May-17 16:00N 40°40' W 074°01'2 4.3
2017-May-17 15:30N 40°42' W 074°02'5 7.8
2017-May-17 14:55N 40°46' W 074°00'0 0.0
2017-May-17 13:58N 40°46' W 074°00'0 0.0
2017-May-16 21:30N 40°46' W 074°00'3 6.8
2017-May-16 21:00N 40°42' W 073°59'3 5.2
2017-May-16 20:30N 40°41' W 074°02'5 9.6
2017-May-16 20:00N 40°46' W 074°00'0 0.0
2017-May-16 19:28N 40°46' W 074°00'0 0.0
2017-May-16 18:58N 40°46' W 074°00'0 0.0
2017-May-16 18:27N 40°46' W 074°00'511.5
2017-May-16 18:01N 40°50' W 073°57'1 2.3
2017-May-16 17:21N 40°49' W 073°56'411.6
2017-May-16 17:00N 40°45' W 073°57'611.6
2017-May-16 16:30N 40°41' W 074°03'5 9.9
2017-May-16 16:00N 40°46' W 074°00'0 0.0
2017-May-16 15:29N 40°46' W 074°00'0 0.0
2017-May-16 14:59N 40°46' W 074°00'0 0.0
2017-May-16 14:29N 40°46' W 074°00'0 0.0
2017-May-16 00:57N 40°46' W 074°00'4 8.1
2017-May-16 00:30N 40°42' W 074°02'2 4.6
2017-May-16 00:00N 40°43' W 073°59'1 1.2
2017-May-15 23:30N 40°42' W 073°60'4 6.9
2017-May-15 23:00N 40°46' W 074°00'0 0.0
2017-May-15 22:29N 40°46' W 074°00'0 0.0
2017-May-15 21:59N 40°46' W 074°00'  
Track history (hours):
 
Tides and Currents Weather Stations Pressure Air Temp Water Temp Dewpoint Dewpoint Depression Visibility Wind Speed Wind Dir Waves Ship Positions

Circle Line Brooklyn

Owner: Circle Line Sight Seeing Yachts Inc., New York, NY. More information available from US FCC via Universal Licensing System and Coast Guard Vessel Documentation Center.

Last reported at 2017-May-25 21:58 UTC. Time now 2017-May-26 16:50 UTC.
Position N 40°46' W 074°00'.

MMSI: 367402250.

Date/timePositionNaut miles runAvg speedWind from/ knotsBaromVisibWave heightAir tempDewpointWater temp
2017-May-25 21:58N 40°46' W 074°00'0 0.0
2017-May-25 21:30N 40°46' W 074°00'3 6.9
2017-May-25 21:00N 40°42' W 073°60'2 4.8
2017-May-25 20:30N 40°41' W 074°02'5 9.1
2017-May-25 19:59N 40°46' W 074°00'0 0.0
2017-May-25 19:29N 40°46' W 074°00'0 0.0
2017-May-25 18:59N 40°46' W 074°00'0 0.0
2017-May-25 18:29N 40°46' W 074°00'611.7
2017-May-25 18:01N 40°51' W 073°57'5 6.0
2017-May-25 17:13N 40°46' W 073°57'210.5
2017-May-25 17:00N 40°44' W 073°58'4 9.0
2017-May-25 16:30N 40°41' W 074°03'5 9.6
2017-May-25 16:00N 40°46' W 074°00'0 0.0
2017-May-25 15:30N 40°46' W 074°00'0 0.0
2017-May-25 15:00N 40°46' W 074°00'0 0.0
2017-May-25 14:27N 40°46' W 074°00'0 0.0
2017-May-25 00:58N 40°46' W 074°00'4 8.2
2017-May-25 00:31N 40°42' W 074°01'4 7.6
2017-May-25 00:00N 40°45' W 073°58'5 9.8
2017-May-24 23:30N 40°42' W 074°02'4 8.9
2017-May-24 23:00N 40°46' W 074°00'0 0.0
2017-May-24 22:30N 40°46' W 074°00'0 0.0
2017-May-24 22:00N 40°46' W 074°00'0 0.0
2017-May-24 21:30N 40°46' W 074°00'3 6.8
2017-May-24 21:01N 40°43' W 073°59'3 5.8
2017-May-24 20:30N 40°41' W 074°02'5 9.4
2017-May-24 20:00N 40°46' W 074°00'0 0.0
2017-May-24 19:30N 40°46' W 074°00'0 0.0
2017-May-24 19:00N 40°46' W 074°00'0 0.0
2017-May-24 18:30N 40°46' W 074°00'0 0.0
2017-May-24 18:00N 40°46' W 074°00'0 0.0
2017-May-24 17:30N 40°46' W 074°00'0 0.0
2017-May-24 17:00N 40°46' W 074°00'0 0.0
2017-May-24 16:30N 40°46' W 074°00'2 4.0
2017-May-24 16:00N 40°44' W 074°01'2 3.9
2017-May-24 15:30N 40°42' W 073°60'2 3.4
2017-May-24 15:00N 40°44' W 074°01'2 4.7
2017-May-24 14:30N 40°46' W 074°00'0 0.0
2017-May-24 13:28N 40°46' W 074°00'0 0.0
2017-May-24 12:58N 40°46' W 074°00'0 0.0
2017-May-23 22:40N 40°46' W 074°00'0 0.0
2017-May-23 22:28N 40°46' W 074°00'0 0.0
2017-May-23 21:58N 40°46' W 074°00'0 0.0
2017-May-23 21:28N 40°46' W 074°00'0 0.0
2017-May-23 20:58N 40°46' W 074°00'0 0.0
2017-May-23 20:28N 40°46' W 074°00'1 1.1
2017-May-23 20:00N 40°46' W 074°00'611.7
2017-May-23 19:30N 40°52' W 073°57'5 6.1
2017-May-23 18:38N 40°46' W 073°57'212.6
2017-May-23 18:30N 40°45' W 073°58'510.2
2017-May-23 18:00N 40°41' W 074°03'5 9.9
2017-May-23 17:30N 40°46' W 074°00'0 0.0
2017-May-23 17:00N 40°46' W 074°00'0 0.0
2017-May-23 16:30N 40°46' W 074°00'612.1
2017-May-23 16:00N 40°51' W 073°57'2 4.4
2017-May-23 15:30N 40°49' W 073°56'611.4
2017-May-23 15:00N 40°44' W 073°58'4 8.5
2017-May-23 14:30N 40°41' W 074°03'5 4.7
2017-May-23 13:27N 40°46' W 074°00'0 0.0
2017-May-23 12:57N 40°46' W 074°00'0 0.0
2017-May-22 21:30N 40°46' W 074°00'5 9.9
2017-May-22 21:00N 40°41' W 074°03'5 9.9
2017-May-22 20:30N 40°46' W 074°00'0 0.0
2017-May-22 19:58N 40°46' W 074°00'0 0.0
2017-May-22 19:30N 40°46' W 074°00'510.1
2017-May-22 19:00N 40°41' W 074°02'5 9.6
2017-May-22 18:30N 40°46' W 074°00'0 0.0
2017-May-22 18:00N 40°46' W 074°00'0 0.0
2017-May-22 17:30N 40°46' W 074°00'0 0.0
2017-May-22 17:00N 40°46' W 074°00'3 6.8
2017-May-22 16:30N 40°43' W 073°59'3 5.7
2017-May-22 16:01N 40°40' W 074°01'1 2.6
2017-May-22 15:30N 40°41' W 074°02'5 9.0
2017-May-22 15:00N 40°46' W 074°00'0 0.0
2017-May-22 14:00N 40°46' W 074°00'0 0.0
2017-May-22 13:30N 40°46' W 074°00'0 0.0
2017-May-22 00:52N 40°46' W 074°00'2 4.6
2017-May-22 00:30N 40°44' W 074°01'2 4.7
2017-May-22 00:01N 40°44' W 073°58'2 3.2
2017-May-21 23:31N 40°42' W 073°60'2 4.3
2017-May-21 23:00N 40°44' W 074°01'2 3.6
2017-May-21 22:30N 40°46' W 074°00'0 0.0
2017-May-21 22:00N 40°46' W 074°00'0 0.0
2017-May-21 21:30N 40°46' W 074°00'3 6.9
2017-May-21 21:00N 40°43' W 073°59'2 4.2
2017-May-21 20:31N 40°43' W 074°02'3 6.5
2017-May-21 20:00N 40°46' W 074°00'0 0.0
2017-May-21 19:30N 40°46' W 074°00'0 0.0
2017-May-21 19:00N 40°46' W 074°00'0 0.0
2017-May-21 18:30N 40°46' W 074°00'4 8.8
2017-May-21 18:01N 40°50' W 073°58'4 3.8
2017-May-21 17:03N 40°46' W 073°57'112.8
2017-May-21 17:00N 40°46' W 073°57'612.2
2017-May-21 16:30N 40°41' W 074°03'5 9.8
2017-May-21 16:00N 40°46' W 074°00'0 0.0
2017-May-21 15:30N 40°46' W 074°00'0 0.0
2017-May-21 15:00N 40°46' W 074°00'0 0.0
2017-May-21 14:30N 40°46' W 074°00'0 0.0
2017-May-21 01:00N 40°46' W 074°00'4 7.8
2017-May-21 00:30N 40°42' W 074°02'3 6.6
2017-May-21 00:00N 40°44' W 073°58'3 6.0
2017-May-20 23:31N 40°42' W 074°01'4 7.7
2017-May-20 22:59N 40°46' W 074°00'0 0.0
2017-May-20 22:29N 40°46' W 074°00'0 0.0
2017-May-20 21:59N 40°46' W 074°00'0 0.1
2017-May-20 21:30N 40°46' W 074°00'4 7.6
2017-May-20 21:00N 40°42' W 074°02'4 7.3
2017-May-20 20:29N 40°46' W 074°00'0 0.0
2017-May-20 19:59N 40°46' W 074°00'0 0.2
2017-May-20 19:30N 40°46' W 074°00'5 9.2
2017-May-20 19:01N 40°42' W 074°02'5 9.0
2017-May-20 18:30N 40°46' W 074°00'0 0.0
2017-May-20 18:00N 40°46' W 074°00'0 0.0
2017-May-20 17:30N 40°46' W 074°00'0 0.0
2017-May-20 17:01N 40°46' W 074°00'4 7.4
2017-May-20 16:31N 40°42' W 074°00'1 2.1
2017-May-20 16:00N 40°41' W 074°01'1 2.8
2017-May-20 15:30N 40°41' W 074°03'510.0
2017-May-20 15:00N 40°46' W 074°00'0 0.0
2017-May-20 14:29N 40°46' W 074°00'0 0.0
2017-May-19 21:32N 40°46' W 074°00'0 0.0
2017-May-19 21:30N 40°46' W 074°00'5 9.5
2017-May-19 21:00N 40°41' W 074°02'5 8.6
2017-May-19 20:28N 40°46' W 074°00'0 0.0
2017-May-19 19:58N 40°46' W 074°00'0 0.0
2017-May-19 19:29N 40°46' W 074°00'5 9.8
2017-May-19 19:00N 40°41' W 074°02'5 9.3
2017-May-19 18:30N 40°46' W 074°00'0 0.0
2017-May-19 17:58N 40°46' W 074°00'0 0.0
2017-May-19 17:28N 40°46' W 074°00'0 0.0
2017-May-19 17:00N 40°46' W 074°00'4 7.4
2017-May-19 16:30N 40°42' W 074°00'1 2.4
2017-May-19 16:00N 40°41' W 074°01'1 2.6
2017-May-19 15:30N 40°41' W 074°03'5 8.5
2017-May-19 14:55N 40°46' W 074°00'0 0.0
2017-May-19 13:58N 40°46' W 074°00'0 0.0
2017-May-18 21:41N 40°46' W 074°00'1 5.3
2017-May-18 21:30N 40°45' W 074°01'3 5.4
2017-May-18 21:00N 40°43' W 073°58'3 5.2
2017-May-18 20:30N 40°43' W 074°01'3 5.9
2017-May-18 20:00N 40°46' W 074°00'0 0.0
2017-May-18 19:28N 40°46' W 074°00'0 0.0
2017-May-18 18:58N 40°46' W 074°00'0 0.0
2017-May-18 18:30N 40°46' W 074°00'612.0
2017-May-18 18:00N 40°51' W 073°57'6 6.3
2017-May-18 17:07N 40°46' W 073°57'112.7
2017-May-18 17:00N 40°44' W 073°58'4 7.0
2017-May-18 16:31N 40°42' W 074°02'4 7.2
2017-May-18 16:00N 40°46' W 074°00'0 0.0
2017-May-18 15:28N 40°46' W 074°00'0 0.0
2017-May-17 21:43N 40°46' W 074°00'0 0.1
2017-May-17 21:28N 40°46' W 074°00'510.5
2017-May-17 21:00N 40°41' W 074°02'5 8.9
2017-May-17 20:28N 40°46' W 074°00'0 0.0
2017-May-17 19:58N 40°46' W 074°00'0 0.0
2017-May-17 19:28N 40°46' W 074°00'510.5
2017-May-17 19:00N 40°41' W 074°02'5 7.8
2017-May-17 18:23N 40°46' W 074°00'0 0.0
2017-May-17 17:59N 40°46' W 074°00'0 0.0
2017-May-17 17:29N 40°46' W 074°00'0 0.0
2017-May-17 16:56N 40°46' W 074°00'4 8.2
2017-May-17 16:30N 40°42' W 073°60'3 5.5
2017-May-17 16:00N 40°40' W 074°01'2 4.3
2017-May-17 15:30N 40°42' W 074°02'5 7.8
2017-May-17 14:55N 40°46' W 074°00'0 0.0
2017-May-17 13:58N 40°46' W 074°00'0 0.0
2017-May-16 21:30N 40°46' W 074°00'3 6.8
2017-May-16 21:00N 40°42' W 073°59'3 5.2
2017-May-16 20:30N 40°41' W 074°02'5 9.6
2017-May-16 20:00N 40°46' W 074°00'0 0.0
2017-May-16 19:28N 40°46' W 074°00'0 0.0
2017-May-16 18:58N 40°46' W 074°00'0 0.0
2017-May-16 18:27N 40°46' W 074°00'511.5
2017-May-16 18:01N 40°50' W 073°57'1 2.3
2017-May-16 17:21N 40°49' W 073°56'411.6
2017-May-16 17:00N 40°45' W 073°57'611.6
2017-May-16 16:30N 40°41' W 074°03'5 9.9
2017-May-16 16:00N 40°46' W 074°00'0 0.0
2017-May-16 15:29N 40°46' W 074°00'0 0.0
2017-May-16 14:59N 40°46' W 074°00'0 0.0
2017-May-16 14:29N 40°46' W 074°00'0 0.0
2017-May-16 00:57N 40°46' W 074°00'4 8.1
2017-May-16 00:30N 40°42' W 074°02'2 4.6
2017-May-16 00:00N 40°43' W 073°59'1 1.2
2017-May-15 23:30N 40°42' W 073°60'4 6.9
2017-May-15 23:00N 40°46' W 074°00'0 0.0
2017-May-15 22:29N 40°46' W 074°00'0 0.0
2017-May-15 21:59N 40°46' W 074°00'  

Dump ship's entire track history